createdAt,value
2019-03-25T00:02:45.963Z,8.25
2019-03-25T00:07:48.645Z,9.03
2019-03-25T00:12:51.411Z,6.10
2019-03-25T00:17:54.399Z,11.20
2019-03-25T00:22:57.160Z,11.75
2019-03-25T00:28:01.879Z,10.53
2019-03-25T00:33:04.561Z,4.90
2019-03-25T00:38:07.435Z,7.80
2019-03-25T00:43:10.111Z,9.98
2019-03-25T00:48:12.992Z,14.98
2019-03-25T00:53:15.633Z,15.70
2019-03-25T00:58:18.378Z,11.73
2019-03-25T01:03:21.312Z,12.80
2019-03-25T01:08:23.977Z,9.93
2019-03-25T01:13:26.695Z,11.33
2019-03-25T01:18:29.586Z,7.28
2019-03-25T01:23:32.158Z,6.87
2019-03-25T01:28:34.783Z,6.67
2019-03-25T01:33:37.413Z,8.38
2019-03-25T01:38:40.054Z,11.03
2019-03-25T01:43:42.794Z,13.83
2019-03-25T01:48:45.468Z,9.93
2019-03-25T01:53:48.191Z,9.10
2019-03-25T01:58:50.932Z,8.10
2019-03-25T02:03:53.631Z,9.53
2019-03-25T02:08:56.547Z,6.55
2019-03-25T02:13:59.363Z,9.28
2019-03-25T02:19:02.436Z,10.78
2019-03-25T02:24:05.146Z,5.22
2019-03-25T02:29:07.840Z,13.20
2019-03-25T02:34:10.552Z,9.28
2019-03-25T02:39:13.594Z,10.55
2019-03-25T02:44:16.374Z,11.78
2019-03-25T02:49:19.137Z,11.73
2019-03-25T02:54:22.198Z,13.50
2019-03-25T02:59:24.941Z,10.65
2019-03-25T03:04:27.675Z,10.72
2019-03-25T03:09:30.452Z,13.25
2019-03-25T03:14:34.196Z,15.60
2019-03-25T03:19:36.890Z,11.95
2019-03-25T03:24:39.739Z,13.25
2019-03-25T03:29:42.482Z,12.35
2019-03-25T03:34:47.143Z,11.90
2019-03-25T03:39:50.595Z,12.78
2019-03-25T03:44:53.322Z,16.65
2019-03-25T03:49:56.347Z,10.25
2019-03-25T03:54:59.792Z,18.85
2019-03-25T04:00:02.557Z,11.85
2019-03-25T04:05:05.462Z,13.58
2019-03-25T04:10:08.266Z,10.38
2019-03-25T04:15:14.629Z,14.05
2019-03-25T04:20:17.264Z,9.73
2019-03-25T04:25:20.160Z,11.35
2019-03-25T04:30:22.733Z,17.17
2019-03-25T04:35:25.374Z,11.85
2019-03-25T04:40:29.137Z,12.05
2019-03-25T04:45:31.784Z,11.97
2019-03-25T04:50:34.374Z,14.85
2019-03-25T04:55:37.110Z,12.35
2019-03-25T05:00:39.798Z,17.20
2019-03-25T05:05:42.446Z,8.98
2019-03-25T05:10:45.063Z,17.45
2019-03-25T05:15:47.711Z,14.78
2019-03-25T05:20:50.346Z,18.15
2019-03-25T05:25:52.964Z,10.48
2019-03-25T05:30:55.795Z,12.55
2019-03-25T05:35:58.794Z,14.47
2019-03-25T05:41:01.519Z,11.50
2019-03-25T05:46:04.186Z,18.77
2019-03-25T05:51:06.896Z,23.60
2019-03-25T05:56:09.799Z,13.62
2019-03-25T06:01:12.592Z,17.20
2019-03-25T06:06:15.315Z,10.95
2019-03-25T06:11:17.947Z,18.02
2019-03-25T06:16:21.128Z,12.78
2019-03-25T06:21:23.808Z,19.45
2019-03-25T06:26:26.388Z,18.17
2019-03-25T06:31:29.024Z,20.72
2019-03-25T06:36:31.722Z,15.13
2019-03-25T06:41:34.476Z,13.20
2019-03-25T06:46:37.060Z,18.60
2019-03-25T06:51:39.759Z,17.85
2019-03-25T06:56:42.495Z,19.48
2019-03-25T07:01:45.620Z,15.10
2019-03-25T07:06:48.268Z,15.23
2019-03-25T07:11:51.096Z,16.10
2019-03-25T07:16:54.260Z,11.73
2019-03-25T07:21:56.905Z,16.50
2019-03-25T07:26:59.540Z,17.23
2019-03-25T07:32:02.251Z,18.25
2019-03-25T07:37:04.898Z,17.00
2019-03-25T07:42:07.525Z,22.70
2019-03-25T07:47:10.106Z,16.23
2019-03-25T07:52:12.751Z,20.00
2019-03-25T07:57:15.474Z,14.70
2019-03-25T08:02:18.146Z,16.55
2019-03-25T08:07:20.802Z,15.68
2019-03-25T08:12:23.742Z,15.05
2019-03-25T08:17:26.435Z,14.80
2019-03-25T08:22:29.120Z,16.05
2019-03-25T08:27:31.782Z,19.55
2019-03-25T08:32:34.594Z,12.70
2019-03-25T08:37:37.204Z,12.80
2019-03-25T08:42:39.813Z,14.90
2019-03-25T08:47:42.721Z,13.65
2019-03-25T08:52:45.629Z,11.75
2019-03-25T08:57:48.290Z,19.23
2019-03-25T09:02:50.869Z,15.10
2019-03-25T09:07:53.543Z,11.22
2019-03-25T09:12:56.300Z,19.67
2019-03-25T09:17:59.119Z,12.25
2019-03-25T09:23:01.779Z,11.93
2019-03-25T09:28:04.486Z,12.58
2019-03-25T09:33:07.341Z,14.90
2019-03-25T09:38:09.948Z,16.25
2019-03-25T09:43:12.550Z,14.33
2019-03-25T09:48:15.559Z,13.43
2019-03-25T09:53:18.209Z,11.45
2019-03-25T09:58:20.875Z,11.68
2019-03-25T10:03:23.725Z,11.53
2019-03-25T10:08:26.476Z,10.28
2019-03-25T10:13:31.175Z,11.00
2019-03-25T10:18:33.807Z,10.50
2019-03-25T10:23:36.409Z,10.25
2019-03-25T10:28:48.442Z,6.70
2019-03-25T10:33:45.383Z,5.17
2019-03-25T10:38:48.201Z,8.30
2019-03-25T10:43:50.854Z,11.18
2019-03-25T10:48:53.627Z,10.40
2019-03-25T10:53:56.334Z,11.12
2019-03-25T10:58:59.009Z,16.02
2019-03-25T11:04:01.698Z,7.90
2019-03-25T11:09:06.566Z,6.90
2019-03-25T11:14:09.596Z,13.85
2019-03-25T11:19:12.213Z,5.97
2019-03-25T11:24:15.258Z,9.00
2019-03-25T11:29:18.274Z,6.33
2019-03-25T11:34:20.921Z,7.37
2019-03-25T11:39:23.713Z,13.05
2019-03-25T11:44:26.602Z,7.33
2019-03-25T11:49:29.246Z,13.72
2019-03-25T11:54:32.144Z,13.78
2019-03-25T11:59:34.963Z,4.53
2019-03-25T12:04:37.898Z,3.15
2019-03-25T12:09:41.605Z,4.83
2019-03-25T12:14:44.421Z,3.30
2019-03-25T12:19:47.116Z,5.37
2019-03-25T12:24:49.731Z,4.17
2019-03-25T12:29:52.324Z,7.08
2019-03-25T12:34:54.987Z,5.70
2019-03-25T12:39:57.706Z,7.50
2019-03-25T12:45:00.766Z,5.22
2019-03-25T12:50:03.986Z,4.87
2019-03-25T12:55:06.783Z,5.33
2019-03-25T13:00:10.569Z,4.03
2019-03-25T13:05:13.749Z,3.02
2019-03-25T13:10:16.734Z,3.60
2019-03-25T13:15:19.385Z,5.08
2019-03-25T13:20:23.042Z,2.80
2019-03-25T13:25:25.733Z,2.08
2019-03-25T13:30:28.677Z,1.42
2019-03-25T13:35:31.306Z,2.50
2019-03-25T13:40:34.378Z,1.75
2019-03-25T13:45:37.141Z,1.70
2019-03-25T13:50:39.843Z,3.60
2019-03-25T13:55:42.429Z,1.57
2019-03-25T14:00:45.222Z,1.40
2019-03-25T14:05:47.942Z,3.05
2019-03-25T14:10:50.753Z,3.47
2019-03-25T14:15:53.942Z,2.05
2019-03-25T14:20:56.530Z,6.50
2019-03-25T14:25:59.346Z,1.70
2019-03-25T14:31:01.975Z,2.65
2019-03-25T14:36:04.855Z,2.65
2019-03-25T14:41:07.942Z,4.15
2019-03-25T14:46:10.670Z,1.98
2019-03-25T14:51:13.340Z,5.30
2019-03-25T14:56:16.186Z,2.65
2019-03-25T15:01:20.126Z,2.70
2019-03-25T15:06:22.761Z,2.90
2019-03-25T15:11:25.390Z,3.47
2019-03-25T15:16:28.030Z,5.67
2019-03-25T15:21:31.058Z,5.65
2019-03-25T15:26:43.891Z,3.42
2019-03-25T15:32:00.757Z,2.52
2019-03-25T15:37:03.662Z,3.70
2019-03-25T15:42:06.380Z,1.55
2019-03-25T15:47:28.668Z,3.30
2019-03-25T15:52:31.447Z,2.95
2019-03-25T15:57:34.150Z,3.45
2019-03-25T16:02:36.863Z,2.20
2019-03-25T16:07:39.596Z,1.67
2019-03-25T16:12:42.618Z,2.72
2019-03-25T16:17:45.293Z,4.72
2019-03-25T16:22:47.957Z,6.33
2019-03-25T16:27:50.670Z,5.17
2019-03-25T16:32:53.386Z,7.10
2019-03-25T16:37:56.311Z,5.40
2019-03-25T16:42:59.307Z,3.72
2019-03-25T16:48:02.001Z,3.65
2019-03-25T16:53:04.800Z,7.87
2019-03-25T16:58:07.507Z,7.28
2019-03-25T17:03:10.513Z,5.67
2019-03-25T17:08:13.258Z,7.97
2019-03-25T17:13:15.938Z,3.72
2019-03-25T17:18:18.841Z,5.15
2019-03-25T17:23:21.442Z,4.05
2019-03-25T17:28:24.677Z,3.75
2019-03-25T17:33:27.586Z,6.87
2019-03-25T17:38:30.320Z,7.05
2019-03-25T17:43:32.972Z,2.55
2019-03-25T17:48:35.881Z,3.55
2019-03-25T17:53:38.544Z,3.00
2019-03-25T17:58:41.420Z,3.72
2019-03-25T18:03:44.211Z,2.45
2019-03-25T18:08:47.076Z,1.90
2019-03-25T18:13:49.676Z,4.45
2019-03-25T18:18:52.278Z,2.83
2019-03-25T18:23:55.119Z,3.30
2019-03-25T18:28:57.777Z,2.77
2019-03-25T18:34:00.460Z,1.60
2019-03-25T18:39:05.328Z,1.70
2019-03-25T18:44:08.106Z,2.20
2019-03-25T18:49:10.740Z,2.25
2019-03-25T18:54:13.346Z,3.25
2019-03-25T18:59:16.226Z,2.37
2019-03-25T19:04:18.905Z,1.98
2019-03-25T19:09:21.562Z,2.47
2019-03-25T19:14:24.298Z,3.65
2019-03-25T19:19:27.249Z,2.72
2019-03-25T19:24:30.282Z,3.05
2019-03-25T19:29:32.972Z,2.55
2019-03-25T19:34:35.743Z,2.40
2019-03-25T19:39:38.735Z,1.80
2019-03-25T19:44:41.438Z,2.05
2019-03-25T19:49:44.031Z,3.25
2019-03-25T19:54:46.663Z,2.30
2019-03-25T19:59:49.382Z,2.92
2019-03-25T20:04:52.066Z,2.40
2019-03-25T20:09:54.782Z,1.85
2019-03-25T20:14:57.427Z,2.83
2019-03-25T20:20:00.405Z,3.17
2019-03-25T20:25:04.617Z,4.28
2019-03-25T20:30:07.484Z,7.00
2019-03-25T20:35:10.364Z,4.25
2019-03-25T20:40:13.291Z,3.42
2019-03-25T20:45:18.332Z,3.47
2019-03-25T20:50:20.974Z,4.95
2019-03-25T20:55:24.248Z,3.98
2019-03-25T21:00:45.376Z,2.50
2019-03-25T21:05:52.529Z,4.47
2019-03-25T21:10:55.424Z,3.50
2019-03-25T21:15:58.218Z,2.98
2019-03-25T21:21:01.017Z,4.42
2019-03-25T21:26:03.783Z,6.10
2019-03-25T21:31:06.604Z,5.05
2019-03-25T21:36:09.290Z,4.55
2019-03-25T21:41:11.987Z,2.55
2019-03-25T21:46:14.734Z,5.95
2019-03-25T21:51:17.439Z,6.85
2019-03-25T21:56:20.112Z,6.40
2019-03-25T22:01:23.460Z,7.35
2019-03-25T22:06:26.152Z,5.92
2019-03-25T22:11:28.817Z,9.25
2019-03-25T22:16:31.470Z,5.80
2019-03-25T22:21:34.157Z,2.83
2019-03-25T22:26:36.797Z,5.47
2019-03-25T22:31:39.466Z,10.58
2019-03-25T22:36:42.340Z,4.40
2019-03-25T22:41:45.012Z,4.05
2019-03-25T22:46:47.642Z,6.17
2019-03-25T22:51:50.295Z,5.28
2019-03-25T22:56:52.951Z,8.15
2019-03-25T23:01:55.658Z,6.97
2019-03-25T23:06:58.379Z,4.97
2019-03-25T23:12:01.061Z,2.95
2019-03-25T23:17:03.930Z,4.15
2019-03-25T23:22:06.734Z,4.17
2019-03-25T23:27:09.419Z,5.12
2019-03-25T23:32:12.051Z,4.65
2019-03-25T23:37:15.119Z,6.80
2019-03-25T23:42:17.768Z,4.42
2019-03-25T23:47:20.731Z,6.22
2019-03-25T23:52:23.445Z,8.93
2019-03-25T23:57:26.373Z,4.75
